CDT,Max TemperatureF,Mean TemperatureF,Min TemperatureF,Max Dew PointF,MeanDew PointF,Min DewpointF,Max Humidity, Mean Humidity, Min Humidity, Max Sea Level PressureIn, Mean Sea Level PressureIn, Min Sea Level PressureIn, Max VisibilityMiles, Mean VisibilityMiles, Min VisibilityMiles, Max Wind SpeedMPH, Mean Wind SpeedMPH, Max Gust SpeedMPH,PrecipitationIn, CloudCover, Events, WindDirDegrees
2013-10-1,89,78,68,75,71,66,100,88,52,29.93,29.89,29.81,10,6,0,12,4,,0.00,4,Fog,72
2013-10-2,89,82,75,73,72,67,94,84,48,29.97,29.92,29.85,10,10,8,13,7,,0.00,4,Rain,154
2013-10-3,89,81,74,73,72,67,94,82,49,29.95,29.90,29.82,10,10,10,14,11,17,0.00,4,,177
2013-10-4,90,79,69,73,69,67,100,82,48,29.94,29.90,29.82,10,8,0,15,6,23,0.00,2,Fog,161
2013-10-5,88,76,64,72,66,42,94,73,45,30.02,29.93,29.88,10,10,10,17,7,25,0.00,3,,165
2013-10-6,79,66,53,53,46,37,88,60,22,30.15,30.10,30.02,10,8,2,17,9,23,0.16,3,Rain-Thunderstorm,15
2013-10-7,83,66,50,51,44,35,84,50,18,30.17,30.11,30.05,10,10,7,8,5,,0.00,0,,348
2013-10-8,82,66,51,51,48,45,84,56,28,30.10,30.04,29.98,10,10,10,10,5,,0.00,0,,79
2013-10-9,82,68,53,61,56,49,89,67,42,30.07,30.00,29.95,10,10,10,12,5,,0.00,0,,141
2013-10-10,85,72,60,66,63,59,94,74,48,30.04,29.96,29.87,10,10,10,13,6,,0.00,2,,130
2013-10-11,88,78,70,73,70,66,89,79,56,29.95,29.90,29.82,10,10,10,14,9,,0.00,5,,168
2013-10-12,90,82,73,75,73,68,94,82,52,30.02,29.95,29.89,10,10,4,12,7,,0.00,3,Thunderstorm,152
2013-10-13,77,72,66,73,69,63,94,91,87,30.18,30.10,30.01,10,8,1,22,9,30,0.36,4,Rain-Thunderstorm,97
2013-10-14,84,76,71,73,70,68,95,87,62,30.08,30.03,29.91,10,9,3,15,6,,0.02,4,Rain,139
2013-10-15,85,74,64,70,68,57,94,83,55,30.01,29.97,29.86,10,10,9,15,5,,0.00,5,Rain,146
2013-10-16,62,60,55,57,55,54,94,88,77,30.08,30.02,29.94,10,9,2,14,10,20,0.31,7,Rain,11
2013-10-17,72,63,54,57,51,46,88,70,44,30.14,30.05,29.99,10,10,10,9,6,,0.00,1,,25
2013-10-18,73,64,56,65,62,52,94,87,71,30.00,29.93,29.88,10,7,2,9,4,,0.01,7,Rain,56
2013-10-19,69,60,48,64,49,36,94,72,30,30.20,30.09,29.99,10,10,10,20,9,28,0.00,4,Rain,20
2013-10-20,74,58,44,52,46,41,90,66,36,30.10,30.01,29.93,10,10,5,10,5,,0.00,0,,169
2013-10-21,79,68,58,66,62,56,93,79,62,30.06,29.96,29.90,10,10,7,13,5,,0.00,5,Rain,18
2013-10-22,75,64,52,54,43,35,79,50,23,30.16,30.11,30.06,10,10,10,15,9,,0.00,0,,5
2013-10-23,80,63,47,48,42,38,82,50,24,30.20,30.13,30.10,10,10,10,10,7,,0.00,0,Rain,256
2013-10-24,79,64,48,52,48,44,84,56,32,30.23,30.18,30.13,10,10,10,9,4,,0.00,0,,129
2013-10-25,80,64,51,61,57,49,90,69,50,30.31,30.24,30.19,10,10,10,14,7,,0.00,1,,107
2013-10-26,82,71,62,64,62,60,94,83,50,30.23,30.17,30.06,10,8,2,14,6,,0.00,5,,114
2013-10-27,78,70,62,66,64,59,94,84,65,30.12,30.06,29.99,10,10,3,12,4,,0.00,3,Rain,98
2013-10-28,83,74,66,68,66,62,94,82,55,30.10,30.04,29.96,10,9,3,16,7,23,0.00,6,,140
2013-10-29,84,76,69,70,67,66,94,83,55,30.09,30.04,29.95,10,10,10,16,9,23,0.00,5,,159
2013-10-30,84,78,73,73,72,69,94,84,62,30.03,29.92,29.79,10,10,5,15,9,23,0.00,7,Rain-Thunderstorm,172
2013-10-31,82,69,55,73,68,38,94,84,21,29.89,29.83,29.79,10,9,1,18,12,28,0.28,6,Rain-Thunderstorm,227